createdAt,value
2017-08-02T00:00:46.768Z,0
2017-08-02T00:01:46.736Z,0
2017-08-02T00:02:41.803Z,0
2017-08-02T00:03:36.816Z,0
2017-08-02T00:04:36.874Z,0
2017-08-02T00:05:31.930Z,0
2017-08-02T00:06:26.856Z,0
2017-08-02T00:07:33.049Z,0
2017-08-02T00:08:33.072Z,0
2017-08-02T00:09:32.987Z,0
2017-08-02T00:10:26.969Z,0
2017-08-02T00:11:27.150Z,0
2017-08-02T00:12:27.440Z,0
2017-08-02T00:13:22.260Z,0
2017-08-02T00:14:16.375Z,0
2017-08-02T00:15:16.299Z,0
2017-08-02T00:16:11.259Z,0
2017-08-02T00:17:06.715Z,0
2017-08-02T00:18:06.600Z,0
2017-08-02T00:19:01.408Z,0
2017-08-02T00:19:56.627Z,0
2017-08-02T00:20:56.564Z,0
2017-08-02T00:21:51.625Z,0
2017-08-02T00:22:46.662Z,0
2017-08-02T00:23:47.562Z,0
2017-08-02T00:24:47.580Z,0
2017-08-02T00:25:47.577Z,0
2017-08-02T00:26:42.624Z,0
2017-08-02T00:27:37.220Z,0
2017-08-02T00:28:37.129Z,0
2017-08-02T00:29:31.927Z,0
2017-08-02T00:30:31.955Z,0
2017-08-02T00:31:25.981Z,0
2017-08-02T00:32:26.321Z,0
2017-08-02T00:33:20.881Z,0
2017-08-02T00:34:16.196Z,0
2017-08-02T00:35:16.145Z,0
2017-08-02T00:36:11.127Z,0
2017-08-02T00:37:11.277Z,0
2017-08-02T00:38:11.548Z,0
2017-08-02T00:39:11.373Z,0
2017-08-02T00:40:05.150Z,0
2017-08-02T00:41:05.219Z,0
2017-08-02T00:42:00.273Z,0
2017-08-02T00:42:55.808Z,0
2017-08-02T00:43:56.527Z,0
2017-08-02T00:44:56.743Z,0
2017-08-02T00:45:56.686Z,0
2017-08-02T00:46:51.801Z,0
2017-08-02T00:47:45.953Z,0
2017-08-02T00:48:45.543Z,0
2017-08-02T00:49:40.615Z,0
2017-08-02T00:50:41.145Z,0
2017-08-02T00:51:34.656Z,0
2017-08-02T00:52:34.544Z,0
2017-08-02T00:53:29.683Z,0
2017-08-02T00:54:24.686Z,0
2017-08-02T00:55:24.774Z,0
2017-08-02T00:56:13.804Z,0
2017-08-02T00:57:01.850Z,0
2017-08-02T00:58:03.416Z,0
2017-08-02T00:58:57.058Z,0
2017-08-02T00:59:57.003Z,0
2017-08-02T01:00:52.021Z,0
2017-08-02T01:01:47.128Z,0
2017-08-02T01:02:47.418Z,0
2017-08-02T01:03:42.440Z,0
2017-08-02T01:04:37.359Z,0
2017-08-02T01:05:38.051Z,0
2017-08-02T01:06:38.226Z,0
2017-08-02T01:07:38.787Z,0
2017-08-02T01:08:38.347Z,0
2017-08-02T01:09:39.344Z,0
2017-08-02T01:10:40.402Z,0
2017-08-02T01:11:40.716Z,0
2017-08-02T01:12:47.863Z,0
2017-08-02T01:13:47.902Z,0
2017-08-02T01:14:53.642Z,0
2017-08-02T01:15:48.639Z,0
2017-08-02T01:16:48.501Z,0
2017-08-02T01:17:44.015Z,0
2017-08-02T01:18:38.620Z,0
2017-08-02T01:19:39.014Z,0
2017-08-02T01:20:33.656Z,0
2017-08-02T01:21:28.749Z,0
2017-08-02T01:22:30.173Z,0
2017-08-02T01:23:30.286Z,0
2017-08-02T01:24:29.797Z,0
2017-08-02T01:25:24.861Z,0
2017-08-02T01:26:25.231Z,0
2017-08-02T01:27:25.445Z,0
2017-08-02T01:28:18.938Z,0
2017-08-02T01:29:19.083Z,0
2017-08-02T01:30:14.013Z,0
2017-08-02T01:31:14.248Z,0
2017-08-02T01:32:14.159Z,0
2017-08-02T01:33:14.253Z,0
2017-08-02T01:34:14.234Z,0
2017-08-02T01:35:14.202Z,0
2017-08-02T01:36:08.309Z,0
2017-08-02T01:37:08.320Z,0
2017-08-02T01:38:03.411Z,0
2017-08-02T01:39:03.348Z,0
2017-08-02T01:39:57.421Z,0
2017-08-02T01:40:57.868Z,0
2017-08-02T01:41:52.467Z,0
2017-08-02T01:42:47.889Z,0
2017-08-02T01:43:47.631Z,0
2017-08-02T01:44:42.666Z,0
2017-08-02T01:45:37.692Z,0
2017-08-02T01:46:38.596Z,0
2017-08-02T01:47:38.683Z,0
2017-08-02T01:48:38.837Z,0
2017-08-02T01:49:33.873Z,0
2017-08-02T01:50:28.282Z,0
2017-08-02T01:51:27.825Z,0
2017-08-02T01:52:22.932Z,0
2017-08-02T01:53:22.905Z,0
2017-08-02T01:54:16.973Z,0
2017-08-02T01:55:17.044Z,0
2017-08-02T01:56:12.001Z,0
2017-08-02T01:57:07.005Z,0
2017-08-02T01:58:07.008Z,0
2017-08-02T01:59:02.206Z,0
2017-08-02T01:59:57.143Z,0
2017-08-02T02:00:58.350Z,0
2017-08-02T02:01:58.716Z,0
2017-08-02T02:02:58.244Z,0
2017-08-02T02:03:53.356Z,0
2017-08-02T02:04:47.409Z,0
2017-08-02T02:05:47.385Z,0
2017-08-02T02:06:42.460Z,0
2017-08-02T02:07:42.895Z,0
2017-08-02T02:08:42.597Z,0
2017-08-02T02:09:42.481Z,0
2017-08-02T02:10:36.573Z,0
2017-08-02T02:11:36.585Z,0
2017-08-02T02:12:32.116Z,0
2017-08-02T02:13:32.044Z,0
2017-08-02T02:14:25.730Z,0
2017-08-02T02:15:25.775Z,0
2017-08-02T02:16:20.683Z,0
2017-08-02T02:17:15.784Z,0
2017-08-02T02:18:16.382Z,0
2017-08-02T02:19:11.284Z,0
2017-08-02T02:20:05.878Z,0
2017-08-02T02:21:06.906Z,0
2017-08-02T02:22:06.973Z,0
2017-08-02T02:23:07.439Z,0
2017-08-02T02:24:02.114Z,0
2017-08-02T02:25:02.260Z,0
2017-08-02T02:26:08.155Z,0
2017-08-02T02:27:08.220Z,0
2017-08-02T02:28:08.095Z,0
2017-08-02T02:29:03.201Z,0
2017-08-02T02:30:09.194Z,0
2017-08-02T02:31:03.665Z,0
2017-08-02T02:32:03.317Z,0
2017-08-02T02:32:58.348Z,0
2017-08-02T02:34:04.539Z,0
2017-08-02T02:34:59.469Z,0
2017-08-02T02:35:53.967Z,0
2017-08-02T02:36:53.746Z,0
2017-08-02T02:37:53.978Z,0
2017-08-02T02:38:48.647Z,0
2017-08-02T02:39:48.701Z,0
2017-08-02T02:40:48.702Z,0
2017-08-02T02:41:42.626Z,0
2017-08-02T02:42:42.800Z,0
2017-08-02T02:43:37.729Z,0
2017-08-02T02:44:37.800Z,0
2017-08-02T02:45:31.791Z,0
2017-08-02T02:46:31.861Z,0
2017-08-02T02:47:27.426Z,0
2017-08-02T02:48:21.971Z,0
2017-08-02T02:49:21.998Z,0
2017-08-02T02:50:16.993Z,0
2017-08-02T02:51:12.070Z,0
2017-08-02T02:52:13.141Z,0
2017-08-02T02:53:13.746Z,0
2017-08-02T02:54:13.188Z,0
2017-08-02T02:55:08.251Z,0
2017-08-02T02:56:02.542Z,0
2017-08-02T02:57:02.278Z,0
2017-08-02T02:57:57.663Z,0
2017-08-02T02:58:57.371Z,0
2017-08-02T02:59:51.321Z,0
2017-08-02T03:00:51.483Z,0
2017-08-02T03:01:46.491Z,0
2017-08-02T03:02:41.857Z,0
2017-08-02T03:03:41.638Z,0
2017-08-02T03:04:37.029Z,0
2017-08-02T03:05:31.642Z,0
2017-08-02T03:06:32.652Z,0
2017-08-02T03:07:33.119Z,0
2017-08-02T03:08:32.732Z,0
2017-08-02T03:09:27.768Z,0
2017-08-02T03:10:21.712Z,0
2017-08-02T03:11:21.785Z,0
2017-08-02T03:12:17.177Z,0
2017-08-02T03:13:16.992Z,0
2017-08-02T03:14:10.873Z,0
2017-08-02T03:15:10.926Z,4
2017-08-02T03:16:05.953Z,4
2017-08-02T03:17:01.037Z,4
2017-08-02T03:18:01.376Z,0
2017-08-02T03:18:56.021Z,4
2017-08-02T03:19:52.546Z,4
2017-08-02T03:20:57.293Z,4
2017-08-02T03:21:51.533Z,8
2017-08-02T03:22:51.329Z,4
2017-08-02T03:23:46.223Z,8
2017-08-02T03:24:46.407Z,8
2017-08-02T03:25:40.671Z,8
2017-08-02T03:26:40.389Z,8
2017-08-02T03:27:35.986Z,12
2017-08-02T03:28:30.861Z,12
2017-08-02T03:29:30.949Z,16
2017-08-02T03:30:25.517Z,16
2017-08-02T03:31:20.673Z,24
2017-08-02T03:32:20.570Z,28
2017-08-02T03:33:15.552Z,28
2017-08-02T03:34:10.944Z,36
2017-08-02T03:35:11.757Z,40
2017-08-02T03:36:11.770Z,44
2017-08-02T03:37:11.960Z,56
2017-08-02T03:38:11.984Z,64
2017-08-02T03:39:12.864Z,72
2017-08-02T03:40:13.870Z,80
2017-08-02T03:41:07.931Z,92
2017-08-02T03:42:07.936Z,100
2017-08-02T03:43:02.992Z,112
2017-08-02T03:43:58.010Z,120
2017-08-02T03:44:52.473Z,128
2017-08-02T03:45:52.105Z,140
2017-08-02T03:46:47.135Z,152
2017-08-02T03:47:47.573Z,164
2017-08-02T03:48:48.327Z,184
2017-08-02T03:49:42.191Z,200
2017-08-02T03:50:42.579Z,216
2017-08-02T03:51:37.325Z,232
2017-08-02T03:52:32.887Z,252
2017-08-02T03:53:26.424Z,272
2017-08-02T03:54:26.527Z,296
2017-08-02T03:55:21.820Z,320
2017-08-02T03:56:16.930Z,340
2017-08-02T03:57:16.609Z,372
2017-08-02T03:58:11.954Z,392
2017-08-02T03:59:06.739Z,416
2017-08-02T04:00:00.676Z,448
2017-08-02T04:01:01.745Z,480
2017-08-02T04:01:56.832Z,508
2017-08-02T04:02:56.810Z,540
2017-08-02T04:03:56.773Z,588
2017-08-02T04:04:56.896Z,640
2017-08-02T04:06:02.985Z,700
2017-08-02T04:06:57.968Z,748
2017-08-02T04:07:52.191Z,812
2017-08-02T04:08:52.481Z,864
2017-08-02T04:09:47.102Z,916
2017-08-02T04:10:47.021Z,980
2017-08-02T04:11:48.201Z,1048
2017-08-02T04:12:48.123Z,1128
2017-08-02T04:13:48.139Z,1212
2017-08-02T04:14:48.612Z,1296
2017-08-02T04:15:48.305Z,1388
2017-08-02T04:16:48.270Z,1524
2017-08-02T04:17:48.309Z,1644
2017-08-02T04:18:48.288Z,1740
2017-08-02T04:19:48.816Z,1796
2017-08-02T04:20:48.382Z,1892
2017-08-02T04:21:48.408Z,1948
2017-08-02T04:22:48.752Z,2044
2017-08-02T04:23:48.596Z,2156
2017-08-02T04:24:48.468Z,2220
2017-08-02T04:25:48.874Z,2340
2017-08-02T04:26:48.725Z,2500
2017-08-02T04:27:48.638Z,2664
2017-08-02T04:28:48.781Z,2820
2017-08-02T04:29:54.724Z,2956
2017-08-02T04:30:49.862Z,3048
2017-08-02T04:31:43.843Z,3096
2017-08-02T04:32:43.817Z,3092
2017-08-02T04:33:38.832Z,3108
2017-08-02T04:34:34.050Z,3176
2017-08-02T04:35:33.890Z,3172
2017-08-02T04:36:29.047Z,3164
2017-08-02T04:37:24.009Z,3096
2017-08-02T04:38:17.992Z,3068
2017-08-02T04:39:18.227Z,3160
2017-08-02T04:40:13.115Z,3400
2017-08-02T04:41:13.149Z,3668
2017-08-02T04:42:13.212Z,3836
2017-08-02T04:43:13.717Z,4012
2017-08-02T04:44:07.681Z,4156
2017-08-02T04:45:07.365Z,4336
2017-08-02T04:46:02.393Z,4464
2017-08-02T04:46:57.478Z,4680
2017-08-02T04:47:51.471Z,4844
2017-08-02T04:48:51.938Z,5264
2017-08-02T04:49:46.843Z,5580
2017-08-02T04:50:41.960Z,5728
2017-08-02T04:51:42.074Z,5736
2017-08-02T04:52:36.974Z,5592
2017-08-02T04:53:37.114Z,5824
2017-08-02T04:54:38.178Z,5976
2017-08-02T04:55:39.243Z,6032
2017-08-02T04:56:33.251Z,5448
2017-08-02T04:57:33.465Z,5044
2017-08-02T04:58:27.590Z,4904
2017-08-02T04:59:27.307Z,4828
2017-08-02T05:00:16.359Z,4776
2017-08-02T05:01:10.331Z,4660
2017-08-02T05:02:04.443Z,4560
2017-08-02T05:03:04.544Z,4332
2017-08-02T05:03:59.521Z,4208
2017-08-02T05:04:59.451Z,4140
2017-08-02T05:05:53.593Z,4064
2017-08-02T05:06:53.669Z,3984
2017-08-02T05:07:53.642Z,4132
2017-08-02T05:08:53.745Z,4240
2017-08-02T05:09:53.758Z,4564
2017-08-02T05:10:47.819Z,4888
2017-08-02T05:11:48.925Z,5460
2017-08-02T05:12:42.945Z,5924
2017-08-02T05:13:43.000Z,6080
2017-08-02T05:14:38.049Z,6188
2017-08-02T05:15:32.116Z,6388
2017-08-02T05:16:38.062Z,6888
2017-08-02T05:17:33.161Z,7192
2017-08-02T05:18:27.228Z,7476
2017-08-02T05:19:22.232Z,7448
2017-08-02T05:20:10.267Z,7420
2017-08-02T05:20:59.456Z,7280
2017-08-02T05:21:53.263Z,7408
2017-08-02T05:22:42.321Z,7556
2017-08-02T05:23:42.375Z,7792
2017-08-02T05:24:36.461Z,7552
2017-08-02T05:25:36.596Z,7356
2017-08-02T05:26:31.560Z,7060
2017-08-02T05:27:31.705Z,6932
2017-08-02T05:28:32.554Z,6900
2017-08-02T05:29:21.712Z,7012
2017-08-02T05:30:15.756Z,7316
2017-08-02T05:31:09.829Z,7924
2017-08-02T05:32:03.966Z,8800
2017-08-02T05:32:57.701Z,9824
2017-08-02T05:33:57.840Z,10272
2017-08-02T05:34:45.899Z,10600
2017-08-02T05:35:33.961Z,10976
2017-08-02T05:36:28.988Z,10944
2017-08-02T05:37:24.146Z,11096
2017-08-02T05:38:12.149Z,10872
2017-08-02T05:39:13.074Z,10292
2017-08-02T05:40:08.112Z,9696
2017-08-02T05:41:08.197Z,9508
2017-08-02T05:42:02.297Z,9644
2017-08-02T05:42:51.297Z,9920
2017-08-02T05:43:45.269Z,10500
2017-08-02T05:44:45.430Z,11036
2017-08-02T05:45:40.404Z,11456
2017-08-02T05:46:35.465Z,11788
2017-08-02T05:47:29.558Z,12000
2017-08-02T05:48:30.552Z,12008
2017-08-02T05:49:25.586Z,12140
2017-08-02T05:50:25.659Z,12204
2017-08-02T05:51:25.623Z,12384
2017-08-02T05:52:25.625Z,12400
2017-08-02T05:53:25.806Z,12428
2017-08-02T05:54:20.858Z,12216
2017-08-02T05:55:09.922Z,12144
2017-08-02T05:56:09.903Z,11828
2017-08-02T05:57:10.004Z,11268
2017-08-02T05:58:03.962Z,10412
2017-08-02T05:59:04.087Z,9940
2017-08-02T05:59:59.131Z,9608
2017-08-02T06:00:54.076Z,10280
2017-08-02T06:01:48.069Z,11444
2017-08-02T06:02:42.204Z,11968
2017-08-02T06:03:31.230Z,12020
2017-08-02T06:04:20.291Z,12472
2017-08-02T06:05:08.318Z,12664
2017-08-02T06:05:57.397Z,13464
2017-08-02T06:06:46.345Z,13844
2017-08-02T06:07:35.432Z,13580
2017-08-02T06:08:23.443Z,13572
2017-08-02T06:09:12.596Z,13916
2017-08-02T06:10:00.569Z,14228
2017-08-02T06:10:48.625Z,13340
2017-08-02T06:11:37.722Z,13116
2017-08-02T06:12:31.807Z,13332
2017-08-02T06:13:31.691Z,14076
2017-08-02T06:14:31.749Z,14388
2017-08-02T06:15:26.852Z,14460
2017-08-02T06:16:26.892Z,13692
2017-08-02T06:17:21.904Z,12368
2017-08-02T06:18:09.994Z,10628
2017-08-02T06:18:59.000Z,8868
2017-08-02T06:19:47.123Z,8464
2017-08-02T06:20:35.206Z,8672
2017-08-02T06:21:35.188Z,8664
2017-08-02T06:22:30.275Z,9620
2017-08-02T06:23:31.420Z,10148
2017-08-02T06:24:31.366Z,10684
2017-08-02T06:25:26.324Z,11376
2017-08-02T06:26:21.490Z,12176
2017-08-02T06:27:21.529Z,14620
2017-08-02T06:28:16.448Z,16832
2017-08-02T06:29:11.593Z,17568
2017-08-02T06:30:05.573Z,16256
2017-08-02T06:31:06.673Z,14084
2017-08-02T06:32:01.719Z,13612
2017-08-02T06:33:01.721Z,13384
2017-08-02T06:33:56.771Z,13988
2017-08-02T06:34:56.850Z,14640
2017-08-02T06:35:50.873Z,15536
2017-08-02T06:36:44.869Z,17728
2017-08-02T06:37:34.053Z,17792
2017-08-02T06:38:29.449Z,20352
2017-08-02T06:39:23.064Z,21792
2017-08-02T06:40:11.057Z,21952
2017-08-02T06:41:00.188Z,25280
2017-08-02T06:41:55.127Z,24128
2017-08-02T06:42:55.314Z,24512
2017-08-02T06:43:49.323Z,26496
2017-08-02T06:44:44.371Z,27456
2017-08-02T06:45:32.383Z,28800
2017-08-02T06:46:26.398Z,24256
2017-08-02T06:47:15.602Z,16256
2017-08-02T06:48:10.572Z,16160
2017-08-02T06:48:59.562Z,15784
2017-08-02T06:49:54.580Z,15268
2017-08-02T06:50:43.701Z,14504
2017-08-02T06:51:31.785Z,13696
2017-08-02T06:52:20.741Z,13680
2017-08-02T06:53:08.881Z,13988
2017-08-02T06:53:57.828Z,15008
2017-08-02T06:54:45.887Z,16112
2017-08-02T06:55:34.036Z,16992
2017-08-02T06:56:23.038Z,17248
2017-08-02T06:57:11.069Z,18048
2017-08-02T06:58:00.155Z,18720
2017-08-02T06:58:49.228Z,19296
2017-08-02T06:59:38.328Z,20704
2017-08-02T07:00:27.245Z,22624
2017-08-02T07:01:21.322Z,23776
2017-08-02T07:02:10.322Z,24448
2017-08-02T07:02:58.449Z,24096
2017-08-02T07:03:59.529Z,21888
2017-08-02T07:04:48.669Z,21792
2017-08-02T07:05:36.552Z,22240
2017-08-02T07:06:25.511Z,22784
2017-08-02T07:07:20.670Z,21920
2017-08-02T07:08:09.785Z,20288
2017-08-02T07:09:03.753Z,19648
2017-08-02T07:09:52.922Z,18464
2017-08-02T07:10:40.805Z,17568
2017-08-02T07:11:29.919Z,16928
2017-08-02T07:12:17.971Z,17088
2017-08-02T07:13:05.922Z,18208
2017-08-02T07:13:55.017Z,19296
2017-08-02T07:14:43.118Z,20448
2017-08-02T07:15:31.216Z,21632
2017-08-02T07:16:19.202Z,23072
2017-08-02T07:17:07.363Z,24768
2017-08-02T07:17:56.331Z,26304
2017-08-02T07:18:45.372Z,27776
2017-08-02T07:19:33.442Z,28896
2017-08-02T07:20:34.416Z,28224
2017-08-02T07:21:34.572Z,26176
2017-08-02T07:22:29.669Z,22112
2017-08-02T07:23:29.731Z,18400
2017-08-02T07:24:18.716Z,18176
2017-08-02T07:25:07.680Z,19680
2017-08-02T07:26:02.767Z,22016
2017-08-02T07:26:56.793Z,23872
2017-08-02T07:27:44.929Z,24832
2017-08-02T07:28:32.850Z,26592
2017-08-02T07:29:21.943Z,46080
2017-08-02T07:30:10.070Z,46912
2017-08-02T07:31:04.058Z,53984
2017-08-02T07:31:52.131Z,53760
2017-08-02T07:32:53.209Z,59968
2017-08-02T07:33:41.223Z,42208
2017-08-02T07:34:30.320Z,39712
2017-08-02T07:35:19.275Z,35264
2017-08-02T07:36:14.351Z,36384
2017-08-02T07:37:14.419Z,37376
2017-08-02T07:38:09.408Z,38304
2017-08-02T07:38:57.558Z,36544
2017-08-02T07:39:57.519Z,35456
2017-08-02T07:40:51.644Z,34176
2017-08-02T07:41:45.700Z,33056
2017-08-02T07:42:34.794Z,32288
2017-08-02T07:43:29.701Z,31936
2017-08-02T07:44:23.892Z,32960
2017-08-02T07:45:11.809Z,34560
2017-08-02T07:46:06.034Z,35264
2017-08-02T07:47:05.975Z,35904
2017-08-02T07:48:00.060Z,35616
2017-08-02T07:48:54.120Z,35744
2017-08-02T07:49:48.101Z,34624
2017-08-02T07:50:42.219Z,36896
2017-08-02T07:51:36.255Z,35264
2017-08-02T07:52:30.350Z,34848
2017-08-02T07:53:25.319Z,36640
2017-08-02T07:54:19.389Z,39296
2017-08-02T07:55:19.547Z,42976
2017-08-02T07:56:07.566Z,45056
2017-08-02T07:57:02.574Z,52704
2017-08-02T07:57:50.614Z,68064
2017-08-02T07:58:44.754Z,43680
2017-08-02T07:59:39.809Z,36544
2017-08-02T08:00:33.826Z,33792
2017-08-02T08:01:27.870Z,32800
2017-08-02T08:02:21.974Z,32640
2017-08-02T08:03:15.904Z,32480
2017-08-02T08:04:10.092Z,32480
2017-08-02T08:05:10.118Z,30464
2017-08-02T08:06:05.122Z,29088
2017-08-02T08:06:59.206Z,28960
2017-08-02T08:08:00.251Z,30368
2017-08-02T08:08:49.350Z,32000
2017-08-02T08:09:38.304Z,32736
2017-08-02T08:10:33.498Z,33216
2017-08-02T08:11:28.530Z,32224
2017-08-02T08:12:17.573Z,29824
2017-08-02T08:13:11.578Z,27392
2017-08-02T08:14:06.692Z,25536
2017-08-02T08:15:00.710Z,24608
2017-08-02T08:15:49.800Z,24992
2017-08-02T08:16:37.751Z,26496
2017-08-02T08:17:37.926Z,30016
2017-08-02T08:18:31.890Z,33984
2017-08-02T08:19:31.951Z,36416
2017-08-02T08:20:21.035Z,36864
2017-08-02T08:21:16.274Z,39744
2017-08-02T08:22:04.273Z,43808
2017-08-02T08:22:58.080Z,44128
2017-08-02T08:23:52.199Z,43712
2017-08-02T08:24:41.282Z,40128
2017-08-02T08:25:30.254Z,37312
2017-08-02T08:26:24.514Z,35040
2017-08-02T08:27:12.462Z,33664
2017-08-02T08:28:12.451Z,32704
2017-08-02T08:29:01.465Z,35200
2017-08-02T08:30:01.624Z,41056
2017-08-02T08:30:56.601Z,47328
2017-08-02T08:31:45.829Z,46272
2017-08-02T08:32:34.796Z,44288
2017-08-02T08:33:28.873Z,44896
2017-08-02T08:34:23.893Z,46208
2017-08-02T08:35:18.928Z,45888
2017-08-02T08:36:12.987Z,46336
2017-08-02T08:37:02.749Z,44992
2017-08-02T08:38:08.171Z,44128
2017-08-02T08:39:03.225Z,43904
2017-08-02T08:39:57.139Z,39168
2017-08-02T08:40:51.230Z,42048
2017-08-02T08:41:46.262Z,37536
2017-08-02T08:42:40.352Z,32704
2017-08-02T08:43:40.330Z,28416
2017-08-02T08:44:29.465Z,26752
2017-08-02T08:45:29.560Z,31648
2017-08-02T08:46:29.484Z,38912
2017-08-02T08:47:23.581Z,38240
2017-08-02T08:48:17.756Z,38592
2017-08-02T08:49:11.739Z,29760
2017-08-02T08:50:05.791Z,25536
2017-08-02T08:50:54.745Z,26464
2017-08-02T08:51:49.892Z,26272
2017-08-02T08:52:43.972Z,28096
2017-08-02T08:53:33.022Z,24416
2017-08-02T08:54:22.118Z,19040
2017-08-02T08:55:11.277Z,18144
2017-08-02T08:55:59.177Z,20576
2017-08-02T08:56:59.171Z,22400
2017-08-02T08:57:53.244Z,20832
2017-08-02T08:58:53.381Z,19264
2017-08-02T08:59:47.445Z,20288
2017-08-02T09:00:36.395Z,28064
2017-08-02T09:01:36.491Z,33536
2017-08-02T09:02:24.635Z,32832
2017-08-02T09:03:25.638Z,32064
2017-08-02T09:04:19.669Z,29856
2017-08-02T09:05:08.671Z,29120
2017-08-02T09:06:02.702Z,28800
2017-08-02T09:06:57.918Z,27360
2017-08-02T09:07:46.905Z,29696
2017-08-02T09:08:35.886Z,28192
2017-08-02T09:09:30.163Z,26208
2017-08-02T09:10:24.991Z,26592
2017-08-02T09:11:20.120Z,25696
2017-08-02T09:12:14.169Z,24000
2017-08-02T09:13:14.173Z,25440
2017-08-02T09:14:08.253Z,32032
2017-08-02T09:14:57.245Z,46560
2017-08-02T09:15:45.409Z,51616
2017-08-02T09:16:40.466Z,63392
2017-08-02T09:17:34.569Z,59904
2017-08-02T09:18:34.449Z,32288
2017-08-02T09:19:23.508Z,27104
2017-08-02T09:20:17.569Z,24256
2017-08-02T09:21:06.594Z,21696
2017-08-02T09:22:06.801Z,19104
2017-08-02T09:22:54.773Z,17248
2017-08-02T09:23:54.825Z,15204
2017-08-02T09:24:48.968Z,17120
2017-08-02T09:25:43.968Z,22912
2017-08-02T09:26:38.980Z,28320
2017-08-02T09:27:34.066Z,32064
2017-08-02T09:28:34.093Z,34912
2017-08-02T09:29:23.193Z,37120
2017-08-02T09:30:17.126Z,38144
2017-08-02T09:31:05.314Z,39232
2017-08-02T09:31:59.326Z,57536
2017-08-02T09:32:53.462Z,68672
2017-08-02T09:33:53.362Z,51808
2017-08-02T09:34:47.396Z,56576
2017-08-02T09:35:42.609Z,69600
2017-08-02T09:36:36.728Z,67328
2017-08-02T09:37:30.740Z,73728
2017-08-02T09:38:24.749Z,76352
2017-08-02T09:39:13.773Z,69888
2017-08-02T09:40:07.898Z,39776
2017-08-02T09:41:01.888Z,54048
2017-08-02T09:41:51.039Z,22112
2017-08-02T09:42:46.041Z,14520
2017-08-02T09:43:39.991Z,12172
2017-08-02T09:44:34.216Z,12992
2017-08-02T09:45:29.259Z,17568
2017-08-02T09:46:24.292Z,21824
2017-08-02T09:47:13.348Z,22464
2017-08-02T09:48:13.367Z,24096
2017-08-02T09:49:08.378Z,27968
2017-08-02T09:50:14.486Z,39392
2017-08-02T09:51:08.488Z,48384
2017-08-02T09:52:02.573Z,73696
2017-08-02T09:52:56.654Z,53504
2017-08-02T09:53:57.657Z,69088
2017-08-02T09:54:52.746Z,89472
2017-08-02T09:55:46.835Z,58880
2017-08-02T09:56:40.872Z,41920
2017-08-02T09:57:35.038Z,82336
2017-08-02T09:58:35.101Z,103008
2017-08-02T09:59:29.219Z,58784
2017-08-02T10:00:23.249Z,111616
2017-08-02T10:01:12.207Z,112128
2017-08-02T10:02:00.330Z,113632
2017-08-02T10:02:54.454Z,45952
2017-08-02T10:03:49.553Z,104096
2017-08-02T10:04:43.559Z,83520
2017-08-02T10:05:37.647Z,93760
2017-08-02T10:06:26.749Z,55744
2017-08-02T10:07:20.883Z,84256
2017-08-02T10:08:14.941Z,39456
2017-08-02T10:09:03.112Z,65664
2017-08-02T10:09:56.992Z,78976
2017-08-02T10:10:51.172Z,37440
2017-08-02T10:11:46.149Z,75040
2017-08-02T10:12:40.367Z,34720
2017-08-02T10:13:40.393Z,79616
2017-08-02T10:14:29.471Z,82176
2017-08-02T10:15:17.410Z,78976
2017-08-02T10:16:12.508Z,78848
2017-08-02T10:17:06.608Z,40480
2017-08-02T10:18:00.604Z,55712
2017-08-02T10:18:54.781Z,35648
2017-08-02T10:19:54.855Z,39488
2017-08-02T10:20:49.855Z,42400
2017-08-02T10:21:49.927Z,34112
2017-08-02T10:22:38.994Z,43936
2017-08-02T10:23:28.052Z,81440
2017-08-02T10:24:16.069Z,85280
2017-08-02T10:25:10.205Z,49280
2017-08-02T10:26:05.133Z,45248
2017-08-02T10:26:59.330Z,93024
2017-08-02T10:27:53.363Z,109120
2017-08-02T10:28:41.390Z,103744
2017-08-02T10:29:35.483Z,58400
2017-08-02T10:30:35.615Z,65664
2017-08-02T10:31:24.571Z,87712
2017-08-02T10:32:13.790Z,56352
2017-08-02T10:33:02.826Z,55200
2017-08-02T10:34:02.783Z,75328
2017-08-02T10:34:56.857Z,57280
2017-08-02T10:35:45.883Z,65152
2017-08-02T10:36:39.968Z,53856
2017-08-02T10:37:33.997Z,43488
2017-08-02T10:38:29.557Z,37728
2017-08-02T10:39:18.206Z,34528
2017-08-02T10:40:12.340Z,33088
2017-08-02T10:41:06.356Z,33824
2017-08-02T10:42:06.450Z,36000
2017-08-02T10:43:01.505Z,37664
2017-08-02T10:43:55.473Z,39328
2017-08-02T10:44:55.558Z,41312
2017-08-02T10:45:50.718Z,42944
2017-08-02T10:46:45.720Z,43584
2017-08-02T10:47:39.833Z,41024
2017-08-02T10:48:33.781Z,37344
2017-08-02T10:49:21.913Z,34880
2017-08-02T10:50:22.022Z,32864
2017-08-02T10:51:16.111Z,32992
2017-08-02T10:52:05.166Z,33920
2017-08-02T10:52:54.094Z,35296
2017-08-02T10:53:48.224Z,36864
2017-08-02T10:54:36.269Z,38688
2017-08-02T10:55:36.346Z,38944
2017-08-02T10:56:31.353Z,40640
2017-08-02T10:57:26.473Z,36736
2017-08-02T10:58:20.438Z,35328
2017-08-02T10:59:14.504Z,34560
2017-08-02T11:00:08.575Z,37888
2017-08-02T11:01:02.620Z,46784
2017-08-02T11:01:56.670Z,52256
2017-08-02T11:02:51.829Z,66784
2017-08-02T11:03:45.825Z,60640
2017-08-02T11:04:40.885Z,58432
2017-08-02T11:05:29.920Z,64896
2017-08-02T11:06:25.000Z,68640
2017-08-02T11:07:20.128Z,76288
2017-08-02T11:08:09.211Z,55872
2017-08-02T11:09:03.053Z,42240
2017-08-02T11:09:52.313Z,41184
2017-08-02T11:10:47.236Z,41888
2017-08-02T11:11:36.323Z,48608
2017-08-02T11:12:31.400Z,63264
2017-08-02T11:13:20.646Z,50752
2017-08-02T11:14:14.538Z,51680
2017-08-02T11:15:02.629Z,47392
2017-08-02T11:15:51.656Z,37856
2017-08-02T11:16:40.679Z,35456
2017-08-02T11:17:34.842Z,46304
2017-08-02T11:18:23.972Z,56544
2017-08-02T11:19:18.974Z,53376
2017-08-02T11:20:12.961Z,51296
2017-08-02T11:21:07.039Z,90752
2017-08-02T11:22:07.026Z,56352
2017-08-02T11:23:02.112Z,66784
2017-08-02T11:24:02.107Z,66496
2017-08-02T11:24:57.281Z,57152
2017-08-02T11:25:51.389Z,52416
2017-08-02T11:26:40.386Z,83872
2017-08-02T11:27:34.408Z,55552
2017-08-02T11:28:28.500Z,43520
2017-08-02T11:29:28.601Z,44256
2017-08-02T11:30:23.615Z,51744
2017-08-02T11:31:12.574Z,44192
2017-08-02T11:32:06.641Z,43424
2017-08-02T11:32:54.876Z,49248
2017-08-02T11:33:49.864Z,50688
2017-08-02T11:34:49.930Z,50496
2017-08-02T11:35:43.902Z,51584
2017-08-02T11:36:38.959Z,48832
2017-08-02T11:37:27.090Z,47392
2017-08-02T11:38:15.130Z,48096
2017-08-02T11:39:04.219Z,47424
2017-08-02T11:39:58.258Z,54976
2017-08-02T11:40:53.422Z,62848
2017-08-02T11:41:47.482Z,98496
2017-08-02T11:42:42.824Z,98624
2017-08-02T11:43:31.461Z,89888
2017-08-02T11:44:26.569Z,52608
2017-08-02T11:45:21.756Z,26464
2017-08-02T11:46:10.713Z,31168
2017-08-02T11:47:05.793Z,27680
2017-08-02T11:47:53.822Z,28224
2017-08-02T11:48:47.946Z,31328
2017-08-02T11:49:41.886Z,47584
2017-08-02T11:50:31.103Z,56928
2017-08-02T11:51:25.107Z,63744
2017-08-02T11:52:20.210Z,50240
2017-08-02T11:53:08.176Z,41536
2017-08-02T11:53:57.264Z,42176
2017-08-02T11:54:45.419Z,41504
2017-08-02T11:55:40.448Z,76384
2017-08-02T11:56:29.415Z,86784
2017-08-02T11:57:17.571Z,82400
2017-08-02T11:58:05.501Z,44224
2017-08-02T11:58:59.699Z,78848
2017-08-02T11:59:53.785Z,63104
2017-08-02T12:00:42.049Z,41632
2017-08-02T12:01:36.906Z,58464
2017-08-02T12:02:24.978Z,46208
2017-08-02T12:03:14.060Z,43104
2017-08-02T12:04:09.111Z,50656
2017-08-02T12:05:09.193Z,85344
2017-08-02T12:06:04.324Z,43008
2017-08-02T12:07:04.448Z,82592
2017-08-02T12:07:53.420Z,55840
2017-08-02T12:08:47.466Z,45888
2017-08-02T12:09:42.561Z,52768
2017-08-02T12:10:37.589Z,47200
2017-08-02T12:11:25.666Z,52288
2017-08-02T12:12:14.724Z,61696
2017-08-02T12:13:14.805Z,71040
2017-08-02T12:14:08.874Z,34912
2017-08-02T12:14:57.984Z,69216
2017-08-02T12:15:47.164Z,52672
2017-08-02T12:16:41.126Z,45440
2017-08-02T12:17:36.222Z,44992
2017-08-02T12:18:24.244Z,46272
2017-08-02T12:19:24.381Z,65568
2017-08-02T12:20:18.507Z,68416
2017-08-02T12:21:18.428Z,51072
2017-08-02T12:22:06.868Z,55904